Cleora, South Carolina
Current Conditions -  °F | °C
As of 9:15 AM on Thursday 23 Oct 2014 (Local Time) from KAIK Reporting Station
Clear Clear  
Wind Chill: 48°   Ceiling: Unl
Heat Index: 48°   Visibility: 10mi
Dew Point: 43°   Wind: 3mph
Humidity: 82%   Direction: 360°N
Pressure: 30.14"   Gusts: NA
Location:  33.8233°N, 82.0147°W
Report Text: KAIK 231315Z AUTO 36003KT 10SM CLR 09/06 A3014 RMK AO2 PNO
Loading
Personal Weather Stations






























Interactive Weather Map
Tropical Storm Tracking
New forecast layout! Learn more

10-Day Weather Forecast

Advertisements
Track Severe Weather on mobile